sensor_id;sensor_type;location;lat;lon;timestamp;temperature;humidity
12370;DHT22;6249;52.128;9.986;2023-01-25T00:01:15;1.70;99.90
12370;DHT22;6249;52.128;9.986;2023-01-25T00:04:36;1.60;99.90
12370;DHT22;6249;52.128;9.986;2023-01-25T00:07:56;1.70;99.90
12370;DHT22;6249;52.128;9.986;2023-01-25T00:11:17;1.70;99.90
12370;DHT22;6249;52.128;9.986;2023-01-25T00:14:41;1.70;99.90
12370;DHT22;6249;52.128;9.986;2023-01-25T00:18:02;1.60;99.90
12370;DHT22;6249;52.128;9.986;2023-01-25T00:21:26;1.70;99.90
12370;DHT22;6249;52.128;9.986;2023-01-25T00:24:48;1.70;99.90
12370;DHT22;6249;52.128;9.986;2023-01-25T00:28:09;1.60;99.90
12370;DHT22;6249;52.128;9.986;2023-01-25T00:34:54;1.50;99.90
12370;DHT22;6249;52.128;9.986;2023-01-25T00:38:33;1.50;99.90
12370;DHT22;6249;52.128;9.986;2023-01-25T00:41:54;1.40;99.90
12370;DHT22;6249;52.128;9.986;2023-01-25T00:45:17;1.40;99.90
12370;DHT22;6249;52.128;9.986;2023-01-25T00:48:38;1.40;99.90
12370;DHT22;6249;52.128;9.986;2023-01-25T00:51:59;1.30;99.90
12370;DHT22;6249;52.128;9.986;2023-01-25T00:55:22;1.20;99.90
12370;DHT22;6249;52.128;9.986;2023-01-25T00:58:43;1.20;99.90
12370;DHT22;6249;52.128;9.986;2023-01-25T01:02:04;1.10;99.90
12370;DHT22;6249;52.128;9.986;2023-01-25T01:05:24;1.00;99.90
12370;DHT22;6249;52.128;9.986;2023-01-25T01:08:49;0.90;99.90
12370;DHT22;6249;52.128;9.986;2023-01-25T01:12:14;0.90;99.90
12370;DHT22;6249;52.128;9.986;2023-01-25T01:15:35;0.80;99.90
12370;DHT22;6249;52.128;9.986;2023-01-25T01:18:58;0.80;99.90
12370;DHT22;6249;52.128;9.986;2023-01-25T01:22:19;0.80;99.90
12370;DHT22;6249;52.128;9.986;2023-01-25T01:25:39;0.80;99.90
12370;DHT22;6249;52.128;9.986;2023-01-25T01:29:00;0.80;99.90
12370;DHT22;6249;52.128;9.986;2023-01-25T01:32:20;0.70;99.90
12370;DHT22;6249;52.128;9.986;2023-01-25T01:35:43;0.60;99.90
12370;DHT22;6249;52.128;9.986;2023-01-25T01:39:06;0.60;99.90
12370;DHT22;6249;52.128;9.986;2023-01-25T01:42:26;0.60;99.90
12370;DHT22;6249;52.128;9.986;2023-01-25T01:45:48;0.60;99.90
12370;DHT22;6249;52.128;9.986;2023-01-25T01:52:37;0.80;99.90
12370;DHT22;6249;52.128;9.986;2023-01-25T01:56:00;0.80;99.90
12370;DHT22;6249;52.128;9.986;2023-01-25T01:59:23;0.90;99.90
12370;DHT22;6249;52.128;9.986;2023-01-25T02:02:49;0.90;99.90
12370;DHT22;6249;52.128;9.986;2023-01-25T02:06:15;0.90;99.90
12370;DHT22;6249;52.128;9.986;2023-01-25T02:09:43;0.80;99.90
12370;DHT22;6249;52.128;9.986;2023-01-25T02:13:06;0.70;99.90
12370;DHT22;6249;52.128;9.986;2023-01-25T02:16:27;0.90;99.90
12370;DHT22;6249;52.128;9.986;2023-01-25T02:23:53;0.70;99.90
12370;DHT22;6249;52.128;9.986;2023-01-25T02:27:16;0.60;99.90
12370;DHT22;6249;52.128;9.986;2023-01-25T02:30:37;0.70;99.90
12370;DHT22;6249;52.128;9.986;2023-01-25T02:33:58;0.60;99.90
12370;DHT22;6249;52.128;9.986;2023-01-25T02:37:18;0.60;99.90
12370;DHT22;6249;52.128;9.986;2023-01-25T02:40:58;0.60;99.90
12370;DHT22;6249;52.128;9.986;2023-01-25T02:44:27;0.60;99.90
12370;DHT22;6249;52.128;9.986;2023-01-25T02:47:49;0.80;99.90
12370;DHT22;6249;52.128;9.986;2023-01-25T02:51:10;0.80;99.90
12370;DHT22;6249;52.128;9.986;2023-01-25T02:54:31;0.80;99.90
12370;DHT22;6249;52.128;9.986;2023-01-25T02:57:51;0.80;99.90
12370;DHT22;6249;52.128;9.986;2023-01-25T03:01:14;0.80;99.90
12370;DHT22;6249;52.128;9.986;2023-01-25T03:04:40;0.90;99.90
12370;DHT22;6249;52.128;9.986;2023-01-25T03:08:00;1.10;99.90
12370;DHT22;6249;52.128;9.986;2023-01-25T03:11:21;1.10;99.90
12370;DHT22;6249;52.128;9.986;2023-01-25T03:14:41;1.10;99.90
12370;DHT22;6249;52.128;9.986;2023-01-25T03:18:03;1.10;99.90
12370;DHT22;6249;52.128;9.986;2023-01-25T03:21:25;1.10;99.90
12370;DHT22;6249;52.128;9.986;2023-01-25T03:24:46;1.20;99.90
12370;DHT22;6249;52.128;9.986;2023-01-25T03:28:09;1.20;99.90
12370;DHT22;6249;52.128;9.986;2023-01-25T03:31:29;1.10;99.90
12370;DHT22;6249;52.128;9.986;2023-01-25T03:34:50;1.30;99.90
12370;DHT22;6249;52.128;9.986;2023-01-25T03:38:10;1.30;99.90
12370;DHT22;6249;52.128;9.986;2023-01-25T03:41:33;1.20;99.90
12370;DHT22;6249;52.128;9.986;2023-01-25T03:44:56;1.30;99.90
12370;DHT22;6249;52.128;9.986;2023-01-25T03:48:17;1.30;99.90
12370;DHT22;6249;52.128;9.986;2023-01-25T03:51:37;0.90;99.90
12370;DHT22;6249;52.128;9.986;2023-01-25T03:54:58;1.30;99.90
12370;DHT22;6249;52.128;9.986;2023-01-25T03:58:18;1.30;99.90
12370;DHT22;6249;52.128;9.986;2023-01-25T04:01:39;1.40;99.90
12370;DHT22;6249;52.128;9.986;2023-01-25T04:05:04;1.40;99.90
12370;DHT22;6249;52.128;9.986;2023-01-25T04:08:28;1.40;99.90
12370;DHT22;6249;52.128;9.986;2023-01-25T04:11:49;1.50;99.90
12370;DHT22;6249;52.128;9.986;2023-01-25T04:15:13;1.40;99.90
12370;DHT22;6249;52.128;9.986;2023-01-25T04:18:33;1.30;99.90
12370;DHT22;6249;52.128;9.986;2023-01-25T04:21:56;1.30;99.90
12370;DHT22;6249;52.128;9.986;2023-01-25T04:25:17;1.20;99.90
12370;DHT22;6249;52.128;9.986;2023-01-25T04:28:40;1.20;99.90
12370;DHT22;6249;52.128;9.986;2023-01-25T04:32:01;1.10;99.90
12370;DHT22;6249;52.128;9.986;2023-01-25T04:35:24;1.00;99.90
12370;DHT22;6249;52.128;9.986;2023-01-25T04:38:44;0.90;99.90
12370;DHT22;6249;52.128;9.986;2023-01-25T04:42:08;0.90;99.90
12370;DHT22;6249;52.128;9.986;2023-01-25T04:45:30;0.90;99.90
12370;DHT22;6249;52.128;9.986;2023-01-25T04:48:51;0.90;99.90
12370;DHT22;6249;52.128;9.986;2023-01-25T04:52:12;0.90;99.90
12370;DHT22;6249;52.128;9.986;2023-01-25T04:55:33;0.90;99.90
12370;DHT22;6249;52.128;9.986;2023-01-25T04:58:56;0.80;99.90
12370;DHT22;6249;52.128;9.986;2023-01-25T05:02:16;0.80;99.90
12370;DHT22;6249;52.128;9.986;2023-01-25T05:05:37;0.80;99.90
12370;DHT22;6249;52.128;9.986;2023-01-25T05:08:58;0.80;99.90
12370;DHT22;6249;52.128;9.986;2023-01-25T05:12:18;0.90;99.90
12370;DHT22;6249;52.128;9.986;2023-01-25T05:15:39;0.90;99.90
12370;DHT22;6249;52.128;9.986;2023-01-25T05:18:59;0.90;99.90
12370;DHT22;6249;52.128;9.986;2023-01-25T05:22:20;0.90;99.90
12370;DHT22;6249;52.128;9.986;2023-01-25T05:25:45;0.80;99.90
12370;DHT22;6249;52.128;9.986;2023-01-25T05:29:32;0.80;99.90
12370;DHT22;6249;52.128;9.986;2023-01-25T05:32:55;0.70;99.90
12370;DHT22;6249;52.128;9.986;2023-01-25T05:36:15;0.80;99.90
12370;DHT22;6249;52.128;9.986;2023-01-25T05:39:36;0.70;99.90
12370;DHT22;6249;52.128;9.986;2023-01-25T05:42:59;0.80;99.90
12370;DHT22;6249;52.128;9.986;2023-01-25T05:46:20;0.70;99.90
12370;DHT22;6249;52.128;9.986;2023-01-25T05:49:43;0.70;99.90
12370;DHT22;6249;52.128;9.986;2023-01-25T05:53:06;0.80;99.90
12370;DHT22;6249;52.128;9.986;2023-01-25T05:56:26;0.80;99.90
12370;DHT22;6249;52.128;9.986;2023-01-25T05:59:47;0.70;99.90
12370;DHT22;6249;52.128;9.986;2023-01-25T06:03:07;0.70;99.90
12370;DHT22;6249;52.128;9.986;2023-01-25T06:06:31;0.70;99.90
12370;DHT22;6249;52.128;9.986;2023-01-25T06:09:54;0.80;99.90
12370;DHT22;6249;52.128;9.986;2023-01-25T06:13:17;0.80;99.90
12370;DHT22;6249;52.128;9.986;2023-01-25T06:16:37;0.80;99.90
12370;DHT22;6249;52.128;9.986;2023-01-25T06:19:58;0.70;99.90
12370;DHT22;6249;52.128;9.986;2023-01-25T06:23:19;0.60;99.90
12370;DHT22;6249;52.128;9.986;2023-01-25T06:26:39;0.60;99.90
12370;DHT22;6249;52.128;9.986;2023-01-25T06:30:02;0.70;99.90
12370;DHT22;6249;52.128;9.986;2023-01-25T06:33:23;0.70;99.90
12370;DHT22;6249;52.128;9.986;2023-01-25T06:36:44;0.70;99.90
12370;DHT22;6249;52.128;9.986;2023-01-25T06:40:09;0.70;99.90
12370;DHT22;6249;52.128;9.986;2023-01-25T06:43:33;0.60;99.90
12370;DHT22;6249;52.128;9.986;2023-01-25T06:46:54;0.70;99.90
12370;DHT22;6249;52.128;9.986;2023-01-25T06:50:17;0.60;99.90
12370;DHT22;6249;52.128;9.986;2023-01-25T06:53:41;0.60;99.90
12370;DHT22;6249;52.128;9.986;2023-01-25T06:57:01;0.60;99.90
12370;DHT22;6249;52.128;9.986;2023-01-25T07:00:22;0.50;99.90
12370;DHT22;6249;52.128;9.986;2023-01-25T07:03:43;0.50;99.90
12370;DHT22;6249;52.128;9.986;2023-01-25T07:07:09;0.50;99.90
12370;DHT22;6249;52.128;9.986;2023-01-25T07:10:32;0.50;99.90
12370;DHT22;6249;52.128;9.986;2023-01-25T07:13:52;0.40;99.90
12370;DHT22;6249;52.128;9.986;2023-01-25T07:17:13;0.50;99.90
12370;DHT22;6249;52.128;9.986;2023-01-25T07:20:33;1.00;99.90
12370;DHT22;6249;52.128;9.986;2023-01-25T07:23:59;0.50;99.90
12370;DHT22;6249;52.128;9.986;2023-01-25T07:27:26;0.50;99.90
12370;DHT22;6249;52.128;9.986;2023-01-25T07:30:49;0.50;99.90
12370;DHT22;6249;52.128;9.986;2023-01-25T07:34:10;0.50;99.90
12370;DHT22;6249;52.128;9.986;2023-01-25T07:37:32;0.50;99.90
12370;DHT22;6249;52.128;9.986;2023-01-25T07:40:55;0.50;99.90
12370;DHT22;6249;52.128;9.986;2023-01-25T07:44:16;0.60;99.90
12370;DHT22;6249;52.128;9.986;2023-01-25T07:47:36;0.50;99.90
12370;DHT22;6249;52.128;9.986;2023-01-25T07:50:58;0.50;99.90
12370;DHT22;6249;52.128;9.986;2023-01-25T07:54:32;0.50;99.90
12370;DHT22;6249;52.128;9.986;2023-01-25T07:57:55;0.60;99.90
12370;DHT22;6249;52.128;9.986;2023-01-25T08:01:17;0.70;99.90
12370;DHT22;6249;52.128;9.986;2023-01-25T08:04:38;0.60;99.90
12370;DHT22;6249;52.128;9.986;2023-01-25T08:08:01;0.70;99.90
12370;DHT22;6249;52.128;9.986;2023-01-25T08:11:25;0.80;99.90
12370;DHT22;6249;52.128;9.986;2023-01-25T08:14:48;1.30;99.90
12370;DHT22;6249;52.128;9.986;2023-01-25T08:18:11;0.90;99.90
12370;DHT22;6249;52.128;9.986;2023-01-25T08:21:34;0.80;99.90
12370;DHT22;6249;52.128;9.986;2023-01-25T08:24:57;0.70;99.90
12370;DHT22;6249;52.128;9.986;2023-01-25T08:28:22;0.80;99.90
12370;DHT22;6249;52.128;9.986;2023-01-25T08:31:45;0.60;99.90
12370;DHT22;6249;52.128;9.986;2023-01-25T08:35:07;0.60;99.90
12370;DHT22;6249;52.128;9.986;2023-01-25T08:38:27;0.70;99.90
12370;DHT22;6249;52.128;9.986;2023-01-25T08:41:50;0.60;99.90
12370;DHT22;6249;52.128;9.986;2023-01-25T08:45:11;0.80;99.90
12370;DHT22;6249;52.128;9.986;2023-01-25T08:48:34;0.80;99.90
12370;DHT22;6249;52.128;9.986;2023-01-25T08:51:57;0.70;99.90
12370;DHT22;6249;52.128;9.986;2023-01-25T08:55:17;0.70;99.90
12370;DHT22;6249;52.128;9.986;2023-01-25T08:58:42;0.80;99.90
12370;DHT22;6249;52.128;9.986;2023-01-25T09:02:03;0.70;99.90
12370;DHT22;6249;52.128;9.986;2023-01-25T09:05:23;0.70;99.90
12370;DHT22;6249;52.128;9.986;2023-01-25T09:08:44;0.70;99.90
12370;DHT22;6249;52.128;9.986;2023-01-25T09:12:07;0.80;99.90
12370;DHT22;6249;52.128;9.986;2023-01-25T09:15:28;0.70;99.90
12370;DHT22;6249;52.128;9.986;2023-01-25T09:18:48;0.80;99.90
12370;DHT22;6249;52.128;9.986;2023-01-25T09:22:13;0.90;99.90
12370;DHT22;6249;52.128;9.986;2023-01-25T09:25:34;0.80;99.90
12370;DHT22;6249;52.128;9.986;2023-01-25T09:28:55;0.80;99.90
12370;DHT22;6249;52.128;9.986;2023-01-25T09:32:15;0.80;99.90
12370;DHT22;6249;52.128;9.986;2023-01-25T09:35:36;0.80;99.90
12370;DHT22;6249;52.128;9.986;2023-01-25T09:38:57;0.90;99.90
12370;DHT22;6249;52.128;9.986;2023-01-25T09:50:56;0.90;99.90
12370;DHT22;6249;52.128;9.986;2023-01-25T09:54:16;0.80;99.90
12370;DHT22;6249;52.128;9.986;2023-01-25T09:57:38;0.80;99.90
12370;DHT22;6249;52.128;9.986;2023-01-25T10:04:46;0.80;99.90
12370;DHT22;6249;52.128;9.986;2023-01-25T10:08:37;1.00;99.90
12370;DHT22;6249;52.128;9.986;2023-01-25T10:15:42;0.70;99.90
12370;DHT22;6249;52.128;9.986;2023-01-25T10:22:42;0.90;99.90
12370;DHT22;6249;52.128;9.986;2023-01-25T10:26:17;1.00;99.90
12370;DHT22;6249;52.128;9.986;2023-01-25T10:29:40;0.90;99.90
12370;DHT22;6249;52.128;9.986;2023-01-25T10:33:10;0.90;99.90
12370;DHT22;6249;52.128;9.986;2023-01-25T10:36:33;0.90;99.90
12370;DHT22;6249;52.128;9.986;2023-01-25T10:40:02;0.90;99.90
12370;DHT22;6249;52.128;9.986;2023-01-25T10:43:24;0.90;99.90
12370;DHT22;6249;52.128;9.986;2023-01-25T10:54:13;0.80;99.90
12370;DHT22;6249;52.128;9.986;2023-01-25T10:57:35;0.90;99.90
12370;DHT22;6249;52.128;9.986;2023-01-25T11:00:56;0.90;99.90
12370;DHT22;6249;52.128;9.986;2023-01-25T11:04:32;0.80;99.90
12370;DHT22;6249;52.128;9.986;2023-01-25T11:07:53;0.90;99.90
12370;DHT22;6249;52.128;9.986;2023-01-25T11:11:34;0.70;99.90
12370;DHT22;6249;52.128;9.986;2023-01-25T11:14:54;0.70;99.90
12370;DHT22;6249;52.128;9.986;2023-01-25T11:18:35;0.70;99.90
12370;DHT22;6249;52.128;9.986;2023-01-25T11:21:57;0.60;99.90
12370;DHT22;6249;52.128;9.986;2023-01-25T11:25:28;0.80;99.90
12370;DHT22;6249;52.128;9.986;2023-01-25T11:28:49;0.70;99.90
12370;DHT22;6249;52.128;9.986;2023-01-25T11:32:19;0.90;99.90
12370;DHT22;6249;52.128;9.986;2023-01-25T11:54:04;0.90;99.90
12370;DHT22;6249;52.128;9.986;2023-01-25T12:08:40;0.70;99.90
12370;DHT22;6249;52.128;9.986;2023-01-25T12:19:23;1.00;99.90
12370;DHT22;6249;52.128;9.986;2023-01-25T12:27:20;0.60;99.90
12370;DHT22;6249;52.128;9.986;2023-01-25T12:30:53;0.70;99.90
12370;DHT22;6249;52.128;9.986;2023-01-25T12:34:30;0.80;99.90
12370;DHT22;6249;52.128;9.986;2023-01-25T12:37:57;0.80;99.90
12370;DHT22;6249;52.128;9.986;2023-01-25T12:45:10;0.80;99.90
12370;DHT22;6249;52.128;9.986;2023-01-25T12:48:36;0.80;99.90
12370;DHT22;6249;52.128;9.986;2023-01-25T12:52:06;0.70;99.90
12370;DHT22;6249;52.128;9.986;2023-01-25T12:55:27;0.80;99.90
12370;DHT22;6249;52.128;9.986;2023-01-25T12:58:57;0.90;99.90
12370;DHT22;6249;52.128;9.986;2023-01-25T13:06:21;0.90;99.90
12370;DHT22;6249;52.128;9.986;2023-01-25T13:10:00;0.90;99.90
12370;DHT22;6249;52.128;9.986;2023-01-25T13:13:26;0.90;99.90
12370;DHT22;6249;52.128;9.986;2023-01-25T13:17:07;0.90;99.90
12370;DHT22;6249;52.128;9.986;2023-01-25T13:20:56;0.80;99.90
12370;DHT22;6249;52.128;9.986;2023-01-25T13:24:29;0.80;99.90
12370;DHT22;6249;52.128;9.986;2023-01-25T13:27:49;0.80;99.90
12370;DHT22;6249;52.128;9.986;2023-01-25T13:34:59;0.80;99.90
12370;DHT22;6249;52.128;9.986;2023-01-25T13:38:29;0.80;99.90
12370;DHT22;6249;52.128;9.986;2023-01-25T13:45:20;0.70;99.90
12370;DHT22;6249;52.128;9.986;2023-01-25T13:48:53;0.80;99.90
12370;DHT22;6249;52.128;9.986;2023-01-25T13:52:17;0.70;99.90
12370;DHT22;6249;52.128;9.986;2023-01-25T13:55:45;0.80;99.90
12370;DHT22;6249;52.128;9.986;2023-01-25T13:59:23;0.80;99.90
12370;DHT22;6249;52.128;9.986;2023-01-25T14:02:45;0.80;99.90
12370;DHT22;6249;52.128;9.986;2023-01-25T14:06:18;0.90;99.90
12370;DHT22;6249;52.128;9.986;2023-01-25T14:09:44;0.80;99.90
12370;DHT22;6249;52.128;9.986;2023-01-25T14:13:13;0.80;99.90
12370;DHT22;6249;52.128;9.986;2023-01-25T14:16:34;0.90;99.90
12370;DHT22;6249;52.128;9.986;2023-01-25T14:19:57;0.80;99.90
12370;DHT22;6249;52.128;9.986;2023-01-25T14:23:28;0.80;99.90
12370;DHT22;6249;52.128;9.986;2023-01-25T14:26:50;0.80;99.90
12370;DHT22;6249;52.128;9.986;2023-01-25T14:30:33;0.80;99.90
12370;DHT22;6249;52.128;9.986;2023-01-25T14:33:54;0.60;99.90
12370;DHT22;6249;52.128;9.986;2023-01-25T14:37:20;0.70;99.90
12370;DHT22;6249;52.128;9.986;2023-01-25T14:40:41;0.80;99.90
12370;DHT22;6249;52.128;9.986;2023-01-25T14:44:03;0.60;99.90
12370;DHT22;6249;52.128;9.986;2023-01-25T14:47:30;0.70;99.90
12370;DHT22;6249;52.128;9.986;2023-01-25T14:50:51;0.80;99.90
12370;DHT22;6249;52.128;9.986;2023-01-25T14:54:24;0.70;99.90
12370;DHT22;6249;52.128;9.986;2023-01-25T14:57:45;0.70;99.90
12370;DHT22;6249;52.128;9.986;2023-01-25T15:01:13;0.60;99.90
12370;DHT22;6249;52.128;9.986;2023-01-25T15:05:19;0.60;99.90
12370;DHT22;6249;52.128;9.986;2023-01-25T15:08:43;0.70;99.90
12370;DHT22;6249;52.128;9.986;2023-01-25T15:12:28;0.60;99.90
12370;DHT22;6249;52.128;9.986;2023-01-25T15:22:43;0.70;99.90
12370;DHT22;6249;52.128;9.986;2023-01-25T15:26:21;0.70;99.90
12370;DHT22;6249;52.128;9.986;2023-01-25T15:29:42;0.70;99.90
12370;DHT22;6249;52.128;9.986;2023-01-25T15:33:03;0.60;99.90
12370;DHT22;6249;52.128;9.986;2023-01-25T15:36:25;0.70;99.90
12370;DHT22;6249;52.128;9.986;2023-01-25T15:39:48;0.80;99.90
12370;DHT22;6249;52.128;9.986;2023-01-25T15:43:14;0.70;99.90
12370;DHT22;6249;52.128;9.986;2023-01-25T15:46:35;0.60;99.90
12370;DHT22;6249;52.128;9.986;2023-01-25T15:49:57;0.80;99.90
12370;DHT22;6249;52.128;9.986;2023-01-25T15:53:20;0.80;99.90
12370;DHT22;6249;52.128;9.986;2023-01-25T15:56:49;0.60;99.90
12370;DHT22;6249;52.128;9.986;2023-01-25T16:00:19;0.60;99.90
12370;DHT22;6249;52.128;9.986;2023-01-25T16:03:40;0.50;99.90
12370;DHT22;6249;52.128;9.986;2023-01-25T16:07:01;0.40;99.90
12370;DHT22;6249;52.128;9.986;2023-01-25T16:10:23;0.30;99.90
12370;DHT22;6249;52.128;9.986;2023-01-25T16:13:44;0.60;99.90
12370;DHT22;6249;52.128;9.986;2023-01-25T16:17:18;0.60;99.90
12370;DHT22;6249;52.128;9.986;2023-01-25T16:20:40;0.50;99.90
12370;DHT22;6249;52.128;9.986;2023-01-25T16:24:01;0.40;99.90
12370;DHT22;6249;52.128;9.986;2023-01-25T16:27:23;0.40;99.90
12370;DHT22;6249;52.128;9.986;2023-01-25T16:30:55;0.50;99.90
12370;DHT22;6249;52.128;9.986;2023-01-25T16:34:17;0.60;99.90
12370;DHT22;6249;52.128;9.986;2023-01-25T16:37:39;0.60;99.90
12370;DHT22;6249;52.128;9.986;2023-01-25T16:41:02;0.50;99.90
12370;DHT22;6249;52.128;9.986;2023-01-25T16:44:26;0.60;99.90
12370;DHT22;6249;52.128;9.986;2023-01-25T16:47:46;0.50;99.90
12370;DHT22;6249;52.128;9.986;2023-01-25T16:51:14;0.50;99.90
12370;DHT22;6249;52.128;9.986;2023-01-25T16:54:37;0.50;99.90
12370;DHT22;6249;52.128;9.986;2023-01-25T16:57:58;0.50;99.90
12370;DHT22;6249;52.128;9.986;2023-01-25T17:01:21;0.30;99.90
12370;DHT22;6249;52.128;9.986;2023-01-25T17:04:42;0.40;99.90
12370;DHT22;6249;52.128;9.986;2023-01-25T17:08:05;0.40;99.90
12370;DHT22;6249;52.128;9.986;2023-01-25T17:11:26;0.30;99.90
12370;DHT22;6249;52.128;9.986;2023-01-25T17:14:47;0.30;99.90
12370;DHT22;6249;52.128;9.986;2023-01-25T17:18:08;0.40;99.90
12370;DHT22;6249;52.128;9.986;2023-01-25T17:21:29;0.40;99.90
12370;DHT22;6249;52.128;9.986;2023-01-25T17:24:49;0.50;99.90
12370;DHT22;6249;52.128;9.986;2023-01-25T17:28:14;0.40;99.90
12370;DHT22;6249;52.128;9.986;2023-01-25T17:31:35;0.30;99.90
12370;DHT22;6249;52.128;9.986;2023-01-25T17:34:56;0.20;99.90
12370;DHT22;6249;52.128;9.986;2023-01-25T17:38:18;0.30;99.90
12370;DHT22;6249;52.128;9.986;2023-01-25T17:41:40;0.30;99.90
12370;DHT22;6249;52.128;9.986;2023-01-25T17:45:00;0.30;99.90
12370;DHT22;6249;52.128;9.986;2023-01-25T17:48:21;0.20;99.90
12370;DHT22;6249;52.128;9.986;2023-01-25T17:51:42;0.30;99.90
12370;DHT22;6249;52.128;9.986;2023-01-25T17:55:03;0.30;99.90
12370;DHT22;6249;52.128;9.986;2023-01-25T17:58:27;0.40;99.90
12370;DHT22;6249;52.128;9.986;2023-01-25T18:01:48;0.30;99.90
12370;DHT22;6249;52.128;9.986;2023-01-25T18:05:10;0.20;99.90
12370;DHT22;6249;52.128;9.986;2023-01-25T18:08:30;0.20;99.90
12370;DHT22;6249;52.128;9.986;2023-01-25T18:11:51;0.20;99.90
12370;DHT22;6249;52.128;9.986;2023-01-25T18:15:11;0.20;99.90
12370;DHT22;6249;52.128;9.986;2023-01-25T18:18:32;0.40;99.90
12370;DHT22;6249;52.128;9.986;2023-01-25T18:21:53;0.30;99.90
12370;DHT22;6249;52.128;9.986;2023-01-25T18:25:32;0.30;99.90
12370;DHT22;6249;52.128;9.986;2023-01-25T18:29:00;0.20;99.90
12370;DHT22;6249;52.128;9.986;2023-01-25T18:32:22;0.10;99.90
12370;DHT22;6249;52.128;9.986;2023-01-25T18:35:46;0.10;99.90
12370;DHT22;6249;52.128;9.986;2023-01-25T18:39:11;0.20;99.90
12370;DHT22;6249;52.128;9.986;2023-01-25T18:42:32;0.30;99.90
12370;DHT22;6249;52.128;9.986;2023-01-25T18:45:57;0.40;99.90
12370;DHT22;6249;52.128;9.986;2023-01-25T18:49:18;0.40;99.90
12370;DHT22;6249;52.128;9.986;2023-01-25T18:52:39;0.40;99.90
12370;DHT22;6249;52.128;9.986;2023-01-25T18:56:05;0.40;99.90
12370;DHT22;6249;52.128;9.986;2023-01-25T18:59:28;0.20;99.90
12370;DHT22;6249;52.128;9.986;2023-01-25T19:02:48;0.30;99.90
12370;DHT22;6249;52.128;9.986;2023-01-25T19:06:11;0.30;99.90
12370;DHT22;6249;52.128;9.986;2023-01-25T19:09:32;0.30;99.90
12370;DHT22;6249;52.128;9.986;2023-01-25T19:12:53;0.30;99.90
12370;DHT22;6249;52.128;9.986;2023-01-25T19:16:21;0.30;99.90
12370;DHT22;6249;52.128;9.986;2023-01-25T19:19:43;0.10;99.90
12370;DHT22;6249;52.128;9.986;2023-01-25T19:23:04;0.20;99.90
12370;DHT22;6249;52.128;9.986;2023-01-25T19:26:25;0.30;99.90
12370;DHT22;6249;52.128;9.986;2023-01-25T19:29:47;0.20;99.90
12370;DHT22;6249;52.128;9.986;2023-01-25T19:33:09;0.20;99.90
12370;DHT22;6249;52.128;9.986;2023-01-25T19:36:32;0.10;99.90
12370;DHT22;6249;52.128;9.986;2023-01-25T19:39:53;0.00;99.90
12370;DHT22;6249;52.128;9.986;2023-01-25T19:43:13;0.10;99.90
12370;DHT22;6249;52.128;9.986;2023-01-25T19:46:35;0.10;99.90
12370;DHT22;6249;52.128;9.986;2023-01-25T19:49:56;0.10;99.90
12370;DHT22;6249;52.128;9.986;2023-01-25T19:53:18;0.10;99.90
12370;DHT22;6249;52.128;9.986;2023-01-25T19:56:46;-0.10;99.90
12370;DHT22;6249;52.128;9.986;2023-01-25T20:00:08;-0.10;99.90
12370;DHT22;6249;52.128;9.986;2023-01-25T20:03:31;0.00;99.90
12370;DHT22;6249;52.128;9.986;2023-01-25T20:06:51;-0.10;99.90
12370;DHT22;6249;52.128;9.986;2023-01-25T20:10:12;0.10;99.90
12370;DHT22;6249;52.128;9.986;2023-01-25T20:13:33;0.00;99.90
12370;DHT22;6249;52.128;9.986;2023-01-25T20:16:56;0.00;99.90
12370;DHT22;6249;52.128;9.986;2023-01-25T20:20:17;-0.10;99.90
12370;DHT22;6249;52.128;9.986;2023-01-25T20:23:42;0.00;99.90
12370;DHT22;6249;52.128;9.986;2023-01-25T20:27:02;-0.10;99.90
12370;DHT22;6249;52.128;9.986;2023-01-25T20:30:26;-0.20;99.90
12370;DHT22;6249;52.128;9.986;2023-01-25T20:33:48;-0.20;99.90
12370;DHT22;6249;52.128;9.986;2023-01-25T20:37:11;-0.10;99.90
12370;DHT22;6249;52.128;9.986;2023-01-25T20:40:34;-0.10;99.90
12370;DHT22;6249;52.128;9.986;2023-01-25T20:43:59;-0.20;99.90
12370;DHT22;6249;52.128;9.986;2023-01-25T20:47:21;-0.10;99.90
12370;DHT22;6249;52.128;9.986;2023-01-25T20:50:44;-0.10;99.90
12370;DHT22;6249;52.128;9.986;2023-01-25T20:54:07;-0.10;99.90
12370;DHT22;6249;52.128;9.986;2023-01-25T20:57:30;-0.30;99.90
12370;DHT22;6249;52.128;9.986;2023-01-25T21:00:50;-0.20;99.90
12370;DHT22;6249;52.128;9.986;2023-01-25T21:04:11;0.00;99.90
12370;DHT22;6249;52.128;9.986;2023-01-25T21:07:34;-0.10;99.90
12370;DHT22;6249;52.128;9.986;2023-01-25T21:11:00;-0.10;99.90
12370;DHT22;6249;52.128;9.986;2023-01-25T21:14:21;-0.10;99.90
12370;DHT22;6249;52.128;9.986;2023-01-25T21:17:42;-0.10;99.90
12370;DHT22;6249;52.128;9.986;2023-01-25T21:21:17;0.00;99.90
12370;DHT22;6249;52.128;9.986;2023-01-25T21:24:38;-0.10;99.90
12370;DHT22;6249;52.128;9.986;2023-01-25T21:27:59;-0.10;99.90
12370;DHT22;6249;52.128;9.986;2023-01-25T21:31:25;0.00;99.90
12370;DHT22;6249;52.128;9.986;2023-01-25T21:34:45;-0.10;99.90
12370;DHT22;6249;52.128;9.986;2023-01-25T21:38:08;-0.20;99.90
12370;DHT22;6249;52.128;9.986;2023-01-25T21:41:30;-0.10;99.90
12370;DHT22;6249;52.128;9.986;2023-01-25T21:44:54;-0.10;99.90
12370;DHT22;6249;52.128;9.986;2023-01-25T21:48:33;0.00;99.90
12370;DHT22;6249;52.128;9.986;2023-01-25T21:52:12;-0.10;99.90
12370;DHT22;6249;52.128;9.986;2023-01-25T21:55:35;-0.10;99.90
12370;DHT22;6249;52.128;9.986;2023-01-25T21:58:55;0.00;99.90
12370;DHT22;6249;52.128;9.986;2023-01-25T22:02:16;-0.20;99.90
12370;DHT22;6249;52.128;9.986;2023-01-25T22:05:39;-0.30;99.90
12370;DHT22;6249;52.128;9.986;2023-01-25T22:09:00;-0.30;99.90
12370;DHT22;6249;52.128;9.986;2023-01-25T22:12:21;-0.30;99.90
12370;DHT22;6249;52.128;9.986;2023-01-25T22:15:41;-0.30;99.90
12370;DHT22;6249;52.128;9.986;2023-01-25T22:19:05;-0.40;99.90
12370;DHT22;6249;52.128;9.986;2023-01-25T22:22:27;-0.40;99.90
12370;DHT22;6249;52.128;9.986;2023-01-25T22:26:05;-0.30;99.90
12370;DHT22;6249;52.128;9.986;2023-01-25T22:29:29;-0.30;99.90
12370;DHT22;6249;52.128;9.986;2023-01-25T22:32:50;-0.30;99.90
12370;DHT22;6249;52.128;9.986;2023-01-25T22:36:11;-0.10;99.90
12370;DHT22;6249;52.128;9.986;2023-01-25T22:39:32;-0.20;99.90
12370;DHT22;6249;52.128;9.986;2023-01-25T22:42:53;-0.30;99.90
12370;DHT22;6249;52.128;9.986;2023-01-25T22:46:19;-0.30;99.90
12370;DHT22;6249;52.128;9.986;2023-01-25T22:49:41;-0.30;99.90
12370;DHT22;6249;52.128;9.986;2023-01-25T22:53:02;-0.40;99.90
12370;DHT22;6249;52.128;9.986;2023-01-25T22:56:27;-0.50;99.90
12370;DHT22;6249;52.128;9.986;2023-01-25T22:59:48;-0.40;99.90
12370;DHT22;6249;52.128;9.986;2023-01-25T23:03:09;-0.50;99.90
12370;DHT22;6249;52.128;9.986;2023-01-25T23:06:33;-0.40;99.90
12370;DHT22;6249;52.128;9.986;2023-01-25T23:09:54;-0.50;99.90
12370;DHT22;6249;52.128;9.986;2023-01-25T23:13:14;-0.50;99.90
12370;DHT22;6249;52.128;9.986;2023-01-25T23:16:41;-0.50;99.90
12370;DHT22;6249;52.128;9.986;2023-01-25T23:20:03;-0.60;99.90
12370;DHT22;6249;52.128;9.986;2023-01-25T23:23:27;-0.70;99.90
12370;DHT22;6249;52.128;9.986;2023-01-25T23:26:50;-0.70;99.90
12370;DHT22;6249;52.128;9.986;2023-01-25T23:30:11;-0.70;99.90
12370;DHT22;6249;52.128;9.986;2023-01-25T23:33:36;-0.70;99.90
12370;DHT22;6249;52.128;9.986;2023-01-25T23:36:57;-0.70;99.90
12370;DHT22;6249;52.128;9.986;2023-01-25T23:40:18;-0.80;99.90
12370;DHT22;6249;52.128;9.986;2023-01-25T23:43:41;-1.00;99.90
12370;DHT22;6249;52.128;9.986;2023-01-25T23:47:02;-0.90;99.90